sensor_id;sensor_type;location;lat;lon;timestamp;P1;durP1;ratioP1;P2;durP2;ratioP2
19812;SDS011;10066;48.108;11.448;2022-11-15T00:01:14;11.40;;;7.30;;
19812;SDS011;10066;48.108;11.448;2022-11-15T00:03:43;11.17;;;7.57;;
19812;SDS011;10066;48.108;11.448;2022-11-15T00:06:10;10.80;;;7.00;;
19812;SDS011;10066;48.108;11.448;2022-11-15T00:08:37;9.87;;;6.70;;
19812;SDS011;10066;48.108;11.448;2022-11-15T00:11:05;10.27;;;7.03;;
19812;SDS011;10066;48.108;11.448;2022-11-15T00:13:32;11.10;;;7.10;;
19812;SDS011;10066;48.108;11.448;2022-11-15T00:16:00;10.60;;;6.57;;
19812;SDS011;10066;48.108;11.448;2022-11-15T00:18:29;11.80;;;6.80;;
19812;SDS011;10066;48.108;11.448;2022-11-15T00:21:02;10.03;;;7.40;;
19812;SDS011;10066;48.108;11.448;2022-11-15T00:23:32;9.33;;;5.80;;
19812;SDS011;10066;48.108;11.448;2022-11-15T00:26:00;9.03;;;6.40;;
19812;SDS011;10066;48.108;11.448;2022-11-15T00:28:28;10.83;;;6.80;;
19812;SDS011;10066;48.108;11.448;2022-11-15T00:30:59;10.23;;;6.43;;
19812;SDS011;10066;48.108;11.448;2022-11-15T00:33:27;12.23;;;7.27;;
19812;SDS011;10066;48.108;11.448;2022-11-15T00:35:59;9.03;;;6.40;;
19812;SDS011;10066;48.108;11.448;2022-11-15T00:38:30;9.30;;;6.80;;
19812;SDS011;10066;48.108;11.448;2022-11-15T00:40:59;11.90;;;7.07;;
19812;SDS011;10066;48.108;11.448;2022-11-15T00:43:28;9.70;;;6.90;;
19812;SDS011;10066;48.108;11.448;2022-11-15T00:45:57;10.33;;;6.27;;
19812;SDS011;10066;48.108;11.448;2022-11-15T00:48:25;8.83;;;6.20;;
19812;SDS011;10066;48.108;11.448;2022-11-15T00:50:52;8.83;;;6.53;;
19812;SDS011;10066;48.108;11.448;2022-11-15T00:53:19;8.67;;;5.30;;
19812;SDS011;10066;48.108;11.448;2022-11-15T00:55:47;13.27;;;6.40;;
19812;SDS011;10066;48.108;11.448;2022-11-15T00:58:13;10.50;;;5.70;;
19812;SDS011;10066;48.108;11.448;2022-11-15T01:00:45;9.43;;;5.47;;
19812;SDS011;10066;48.108;11.448;2022-11-15T01:03:12;10.10;;;6.27;;
19812;SDS011;10066;48.108;11.448;2022-11-15T01:05:39;9.70;;;6.37;;
19812;SDS011;10066;48.108;11.448;2022-11-15T01:08:10;8.20;;;6.00;;
19812;SDS011;10066;48.108;11.448;2022-11-15T01:10:38;7.97;;;5.67;;
19812;SDS011;10066;48.108;11.448;2022-11-15T01:13:05;7.53;;;5.23;;
19812;SDS011;10066;48.108;11.448;2022-11-15T01:15:34;10.23;;;5.70;;
19812;SDS011;10066;48.108;11.448;2022-11-15T01:18:07;6.80;;;5.40;;
19812;SDS011;10066;48.108;11.448;2022-11-15T01:20:38;8.23;;;5.67;;
19812;SDS011;10066;48.108;11.448;2022-11-15T01:23:08;8.37;;;5.40;;
19812;SDS011;10066;48.108;11.448;2022-11-15T01:25:36;8.93;;;5.90;;
19812;SDS011;10066;48.108;11.448;2022-11-15T01:28:05;7.13;;;4.90;;
19812;SDS011;10066;48.108;11.448;2022-11-15T01:30:33;7.97;;;4.97;;
19812;SDS011;10066;48.108;11.448;2022-11-15T01:33:03;7.17;;;4.87;;
19812;SDS011;10066;48.108;11.448;2022-11-15T01:35:33;7.43;;;5.00;;
19812;SDS011;10066;48.108;11.448;2022-11-15T01:38:04;6.30;;;4.30;;
19812;SDS011;10066;48.108;11.448;2022-11-15T01:40:32;6.83;;;4.53;;
19812;SDS011;10066;48.108;11.448;2022-11-15T01:42:59;6.90;;;4.70;;
19812;SDS011;10066;48.108;11.448;2022-11-15T01:45:47;6.43;;;4.30;;
19812;SDS011;10066;48.108;11.448;2022-11-15T01:48:17;5.33;;;3.93;;
19812;SDS011;10066;48.108;11.448;2022-11-15T01:50:46;5.93;;;4.23;;
19812;SDS011;10066;48.108;11.448;2022-11-15T01:53:14;5.60;;;4.20;;
19812;SDS011;10066;48.108;11.448;2022-11-15T01:55:42;4.73;;;3.93;;
19812;SDS011;10066;48.108;11.448;2022-11-15T01:58:10;5.83;;;4.03;;
19812;SDS011;10066;48.108;11.448;2022-11-15T02:00:38;5.83;;;4.07;;
19812;SDS011;10066;48.108;11.448;2022-11-15T02:03:06;7.13;;;4.23;;
19812;SDS011;10066;48.108;11.448;2022-11-15T02:05:33;6.27;;;4.10;;
19812;SDS011;10066;48.108;11.448;2022-11-15T02:08:04;6.37;;;4.00;;
19812;SDS011;10066;48.108;11.448;2022-11-15T02:10:32;5.40;;;3.97;;
19812;SDS011;10066;48.108;11.448;2022-11-15T02:13:00;6.00;;;3.63;;
19812;SDS011;10066;48.108;11.448;2022-11-15T02:15:33;6.03;;;3.70;;
19812;SDS011;10066;48.108;11.448;2022-11-15T02:18:09;4.67;;;3.53;;
19812;SDS011;10066;48.108;11.448;2022-11-15T02:20:46;6.13;;;4.00;;
19812;SDS011;10066;48.108;11.448;2022-11-15T02:23:36;6.50;;;3.93;;
19812;SDS011;10066;48.108;11.448;2022-11-15T02:26:31;6.53;;;4.07;;
19812;SDS011;10066;48.108;11.448;2022-11-15T02:29:22;7.63;;;4.00;;
19812;SDS011;10066;48.108;11.448;2022-11-15T02:32:02;4.73;;;3.70;;
19812;SDS011;10066;48.108;11.448;2022-11-15T02:34:35;7.00;;;4.17;;
19812;SDS011;10066;48.108;11.448;2022-11-15T02:37:15;6.00;;;4.40;;
19812;SDS011;10066;48.108;11.448;2022-11-15T02:39:49;6.77;;;4.53;;
19812;SDS011;10066;48.108;11.448;2022-11-15T02:42:21;5.83;;;4.60;;
19812;SDS011;10066;48.108;11.448;2022-11-15T02:45:10;6.77;;;4.50;;
19812;SDS011;10066;48.108;11.448;2022-11-15T02:47:45;5.30;;;3.77;;
19812;SDS011;10066;48.108;11.448;2022-11-15T02:50:13;5.73;;;4.07;;
19812;SDS011;10066;48.108;11.448;2022-11-15T02:52:44;6.07;;;4.37;;
19812;SDS011;10066;48.108;11.448;2022-11-15T02:55:25;5.87;;;3.97;;
19812;SDS011;10066;48.108;11.448;2022-11-15T02:57:56;7.57;;;3.90;;
19812;SDS011;10066;48.108;11.448;2022-11-15T03:00:34;5.10;;;3.77;;
19812;SDS011;10066;48.108;11.448;2022-11-15T03:03:09;5.60;;;4.60;;
19812;SDS011;10066;48.108;11.448;2022-11-15T03:05:46;7.23;;;4.50;;
19812;SDS011;10066;48.108;11.448;2022-11-15T03:08:21;4.60;;;3.87;;
19812;SDS011;10066;48.108;11.448;2022-11-15T03:10:56;5.80;;;3.90;;
19812;SDS011;10066;48.108;11.448;2022-11-15T03:13:30;6.60;;;4.37;;
19812;SDS011;10066;48.108;11.448;2022-11-15T03:16:08;5.40;;;4.00;;
19812;SDS011;10066;48.108;11.448;2022-11-15T03:18:43;4.83;;;3.70;;
19812;SDS011;10066;48.108;11.448;2022-11-15T03:21:16;4.30;;;3.30;;
19812;SDS011;10066;48.108;11.448;2022-11-15T03:23:46;4.70;;;3.20;;
19812;SDS011;10066;48.108;11.448;2022-11-15T03:26:16;5.17;;;3.63;;
19812;SDS011;10066;48.108;11.448;2022-11-15T03:28:46;6.03;;;3.43;;
19812;SDS011;10066;48.108;11.448;2022-11-15T03:31:17;4.90;;;3.90;;
19812;SDS011;10066;48.108;11.448;2022-11-15T03:34:08;4.30;;;3.57;;
19812;SDS011;10066;48.108;11.448;2022-11-15T03:36:42;4.97;;;3.50;;
19812;SDS011;10066;48.108;11.448;2022-11-15T03:39:12;4.10;;;3.57;;
19812;SDS011;10066;48.108;11.448;2022-11-15T03:41:41;3.73;;;3.17;;
19812;SDS011;10066;48.108;11.448;2022-11-15T03:44:16;4.80;;;3.27;;
19812;SDS011;10066;48.108;11.448;2022-11-15T03:46:50;5.63;;;3.67;;
19812;SDS011;10066;48.108;11.448;2022-11-15T03:49:24;7.37;;;3.50;;
19812;SDS011;10066;48.108;11.448;2022-11-15T03:51:56;5.07;;;3.37;;
19812;SDS011;10066;48.108;11.448;2022-11-15T03:54:26;4.23;;;3.17;;
19812;SDS011;10066;48.108;11.448;2022-11-15T03:56:54;5.90;;;3.40;;
19812;SDS011;10066;48.108;11.448;2022-11-15T03:59:22;5.93;;;3.50;;
19812;SDS011;10066;48.108;11.448;2022-11-15T04:01:49;4.67;;;3.30;;
19812;SDS011;10066;48.108;11.448;2022-11-15T04:04:16;5.93;;;3.50;;
19812;SDS011;10066;48.108;11.448;2022-11-15T04:06:45;3.90;;;3.30;;
19812;SDS011;10066;48.108;11.448;2022-11-15T04:09:12;4.60;;;3.27;;
19812;SDS011;10066;48.108;11.448;2022-11-15T04:11:39;5.43;;;3.43;;
19812;SDS011;10066;48.108;11.448;2022-11-15T04:14:07;3.70;;;3.10;;
19812;SDS011;10066;48.108;11.448;2022-11-15T04:16:34;5.53;;;3.00;;
19812;SDS011;10066;48.108;11.448;2022-11-15T04:19:01;3.83;;;2.83;;
19812;SDS011;10066;48.108;11.448;2022-11-15T04:21:42;4.47;;;3.40;;
19812;SDS011;10066;48.108;11.448;2022-11-15T04:24:29;4.03;;;3.20;;
19812;SDS011;10066;48.108;11.448;2022-11-15T04:26:56;4.00;;;3.13;;
19812;SDS011;10066;48.108;11.448;2022-11-15T04:29:25;3.60;;;2.93;;
19812;SDS011;10066;48.108;11.448;2022-11-15T04:32:03;3.50;;;2.70;;
19812;SDS011;10066;48.108;11.448;2022-11-15T04:34:32;4.73;;;2.70;;
19812;SDS011;10066;48.108;11.448;2022-11-15T04:36:59;4.43;;;2.70;;
19812;SDS011;10066;48.108;11.448;2022-11-15T04:39:42;3.83;;;2.40;;
19812;SDS011;10066;48.108;11.448;2022-11-15T04:42:09;4.67;;;2.93;;
19812;SDS011;10066;48.108;11.448;2022-11-15T04:44:36;4.17;;;2.77;;
19812;SDS011;10066;48.108;11.448;2022-11-15T04:47:04;3.90;;;2.80;;
19812;SDS011;10066;48.108;11.448;2022-11-15T04:49:32;3.33;;;2.73;;
19812;SDS011;10066;48.108;11.448;2022-11-15T04:51:59;3.63;;;2.80;;
19812;SDS011;10066;48.108;11.448;2022-11-15T04:54:27;3.50;;;2.90;;
19812;SDS011;10066;48.108;11.448;2022-11-15T04:56:58;5.40;;;3.47;;
19812;SDS011;10066;48.108;11.448;2022-11-15T04:59:25;8.00;;;3.23;;
19812;SDS011;10066;48.108;11.448;2022-11-15T05:01:55;4.13;;;3.23;;
19812;SDS011;10066;48.108;11.448;2022-11-15T05:04:24;5.00;;;3.27;;
19812;SDS011;10066;48.108;11.448;2022-11-15T05:06:55;4.20;;;3.37;;
19812;SDS011;10066;48.108;11.448;2022-11-15T05:09:22;4.50;;;3.40;;
19812;SDS011;10066;48.108;11.448;2022-11-15T05:11:49;4.60;;;3.60;;
19812;SDS011;10066;48.108;11.448;2022-11-15T05:14:18;6.23;;;3.53;;
19812;SDS011;10066;48.108;11.448;2022-11-15T05:16:44;4.00;;;3.13;;
19812;SDS011;10066;48.108;11.448;2022-11-15T05:19:12;4.27;;;3.23;;
19812;SDS011;10066;48.108;11.448;2022-11-15T05:21:38;5.97;;;3.30;;
19812;SDS011;10066;48.108;11.448;2022-11-15T05:24:05;4.53;;;3.10;;
19812;SDS011;10066;48.108;11.448;2022-11-15T05:26:33;4.70;;;3.00;;
19812;SDS011;10066;48.108;11.448;2022-11-15T05:29:02;4.70;;;2.97;;
19812;SDS011;10066;48.108;11.448;2022-11-15T05:31:30;4.67;;;3.20;;
19812;SDS011;10066;48.108;11.448;2022-11-15T05:33:58;4.40;;;3.60;;
19812;SDS011;10066;48.108;11.448;2022-11-15T05:36:29;5.30;;;3.10;;
19812;SDS011;10066;48.108;11.448;2022-11-15T05:39:00;3.83;;;2.43;;
19812;SDS011;10066;48.108;11.448;2022-11-15T05:41:29;4.07;;;3.30;;
19812;SDS011;10066;48.108;11.448;2022-11-15T05:44:01;3.77;;;2.77;;
19812;SDS011;10066;48.108;11.448;2022-11-15T05:46:33;4.60;;;2.80;;
19812;SDS011;10066;48.108;11.448;2022-11-15T05:49:00;4.40;;;2.90;;
19812;SDS011;10066;48.108;11.448;2022-11-15T05:51:27;4.67;;;3.27;;
19812;SDS011;10066;48.108;11.448;2022-11-15T05:53:56;4.73;;;3.40;;
19812;SDS011;10066;48.108;11.448;2022-11-15T05:56:24;4.27;;;3.20;;
19812;SDS011;10066;48.108;11.448;2022-11-15T05:58:53;5.13;;;3.30;;
19812;SDS011;10066;48.108;11.448;2022-11-15T06:01:23;6.00;;;3.10;;
19812;SDS011;10066;48.108;11.448;2022-11-15T06:03:55;4.57;;;3.30;;
19812;SDS011;10066;48.108;11.448;2022-11-15T06:06:22;6.70;;;3.50;;
19812;SDS011;10066;48.108;11.448;2022-11-15T06:08:49;7.67;;;3.50;;
19812;SDS011;10066;48.108;11.448;2022-11-15T06:11:16;6.83;;;4.10;;
19812;SDS011;10066;48.108;11.448;2022-11-15T06:13:43;5.80;;;3.50;;
19812;SDS011;10066;48.108;11.448;2022-11-15T06:16:12;5.20;;;3.40;;
19812;SDS011;10066;48.108;11.448;2022-11-15T06:18:40;6.03;;;3.90;;
19812;SDS011;10066;48.108;11.448;2022-11-15T06:21:09;5.13;;;3.53;;
19812;SDS011;10066;48.108;11.448;2022-11-15T06:23:36;6.33;;;3.93;;
19812;SDS011;10066;48.108;11.448;2022-11-15T06:26:03;7.53;;;4.17;;
19812;SDS011;10066;48.108;11.448;2022-11-15T06:28:31;5.37;;;3.70;;
19812;SDS011;10066;48.108;11.448;2022-11-15T06:31:01;7.13;;;3.67;;
19812;SDS011;10066;48.108;11.448;2022-11-15T06:33:30;5.67;;;4.13;;
19812;SDS011;10066;48.108;11.448;2022-11-15T06:36:02;7.30;;;4.10;;
19812;SDS011;10066;48.108;11.448;2022-11-15T06:38:32;7.37;;;3.80;;
19812;SDS011;10066;48.108;11.448;2022-11-15T06:41:01;5.90;;;3.60;;
19812;SDS011;10066;48.108;11.448;2022-11-15T06:43:29;5.37;;;3.53;;
19812;SDS011;10066;48.108;11.448;2022-11-15T06:46:00;5.70;;;3.63;;
19812;SDS011;10066;48.108;11.448;2022-11-15T06:48:27;9.27;;;3.70;;
19812;SDS011;10066;48.108;11.448;2022-11-15T06:50:56;8.07;;;4.10;;
19812;SDS011;10066;48.108;11.448;2022-11-15T06:53:24;5.43;;;3.87;;
19812;SDS011;10066;48.108;11.448;2022-11-15T06:55:59;5.40;;;4.00;;
19812;SDS011;10066;48.108;11.448;2022-11-15T06:58:27;5.73;;;3.60;;
19812;SDS011;10066;48.108;11.448;2022-11-15T07:00:59;6.10;;;3.83;;
19812;SDS011;10066;48.108;11.448;2022-11-15T07:03:26;7.53;;;3.97;;
19812;SDS011;10066;48.108;11.448;2022-11-15T07:05:55;5.80;;;3.60;;
19812;SDS011;10066;48.108;11.448;2022-11-15T07:08:24;5.43;;;3.90;;
19812;SDS011;10066;48.108;11.448;2022-11-15T07:10:59;13.27;;;5.27;;
19812;SDS011;10066;48.108;11.448;2022-11-15T07:13:27;7.07;;;3.93;;
19812;SDS011;10066;48.108;11.448;2022-11-15T07:15:58;8.67;;;4.40;;
19812;SDS011;10066;48.108;11.448;2022-11-15T07:18:28;7.00;;;4.47;;
19812;SDS011;10066;48.108;11.448;2022-11-15T07:20:55;10.23;;;4.50;;
19812;SDS011;10066;48.108;11.448;2022-11-15T07:23:27;6.53;;;4.50;;
19812;SDS011;10066;48.108;11.448;2022-11-15T07:25:56;8.83;;;4.93;;
19812;SDS011;10066;48.108;11.448;2022-11-15T07:28:26;9.53;;;5.37;;
19812;SDS011;10066;48.108;11.448;2022-11-15T07:30:53;11.57;;;5.20;;
19812;SDS011;10066;48.108;11.448;2022-11-15T07:33:21;7.57;;;5.00;;
19812;SDS011;10066;48.108;11.448;2022-11-15T07:35:50;9.00;;;4.50;;
19812;SDS011;10066;48.108;11.448;2022-11-15T07:38:21;6.33;;;4.43;;
19812;SDS011;10066;48.108;11.448;2022-11-15T07:40:55;8.93;;;4.73;;
19812;SDS011;10066;48.108;11.448;2022-11-15T07:43:25;10.23;;;4.40;;
19812;SDS011;10066;48.108;11.448;2022-11-15T07:45:54;6.83;;;4.93;;
19812;SDS011;10066;48.108;11.448;2022-11-15T07:48:24;12.87;;;5.07;;
19812;SDS011;10066;48.108;11.448;2022-11-15T07:50:54;7.03;;;4.50;;
19812;SDS011;10066;48.108;11.448;2022-11-15T07:53:23;5.87;;;4.57;;
19812;SDS011;10066;48.108;11.448;2022-11-15T07:55:50;5.77;;;4.33;;
19812;SDS011;10066;48.108;11.448;2022-11-15T07:58:19;9.47;;;5.07;;
19812;SDS011;10066;48.108;11.448;2022-11-15T08:00:48;6.07;;;3.70;;
19812;SDS011;10066;48.108;11.448;2022-11-15T08:03:17;7.03;;;4.33;;
19812;SDS011;10066;48.108;11.448;2022-11-15T08:05:49;8.43;;;5.13;;
19812;SDS011;10066;48.108;11.448;2022-11-15T08:08:17;7.30;;;4.70;;
19812;SDS011;10066;48.108;11.448;2022-11-15T08:10:46;8.77;;;4.60;;
19812;SDS011;10066;48.108;11.448;2022-11-15T08:13:13;7.20;;;5.03;;
19812;SDS011;10066;48.108;11.448;2022-11-15T08:15:42;10.50;;;4.80;;
19812;SDS011;10066;48.108;11.448;2022-11-15T08:18:11;8.30;;;4.70;;
19812;SDS011;10066;48.108;11.448;2022-11-15T08:20:40;8.37;;;4.30;;
19812;SDS011;10066;48.108;11.448;2022-11-15T08:23:09;5.90;;;4.00;;
19812;SDS011;10066;48.108;11.448;2022-11-15T08:25:37;6.07;;;4.10;;
19812;SDS011;10066;48.108;11.448;2022-11-15T08:28:06;9.10;;;4.40;;
19812;SDS011;10066;48.108;11.448;2022-11-15T08:30:34;9.27;;;4.50;;
19812;SDS011;10066;48.108;11.448;2022-11-15T08:33:03;7.20;;;4.30;;
19812;SDS011;10066;48.108;11.448;2022-11-15T08:35:32;11.87;;;4.10;;
19812;SDS011;10066;48.108;11.448;2022-11-15T08:37:59;8.93;;;3.93;;
19812;SDS011;10066;48.108;11.448;2022-11-15T08:40:26;4.87;;;3.60;;
19812;SDS011;10066;48.108;11.448;2022-11-15T08:42:53;5.23;;;4.13;;
19812;SDS011;10066;48.108;11.448;2022-11-15T08:45:23;4.87;;;3.60;;
19812;SDS011;10066;48.108;11.448;2022-11-15T08:47:51;8.00;;;3.40;;
19812;SDS011;10066;48.108;11.448;2022-11-15T08:50:18;5.43;;;3.63;;
19812;SDS011;10066;48.108;11.448;2022-11-15T08:52:47;4.27;;;3.37;;
19812;SDS011;10066;48.108;11.448;2022-11-15T08:55:14;3.60;;;3.30;;
19812;SDS011;10066;48.108;11.448;2022-11-15T08:57:41;4.90;;;3.17;;
19812;SDS011;10066;48.108;11.448;2022-11-15T09:00:20;3.87;;;3.10;;
19812;SDS011;10066;48.108;11.448;2022-11-15T09:03:08;5.87;;;3.77;;
19812;SDS011;10066;48.108;11.448;2022-11-15T09:05:35;5.03;;;3.20;;
19812;SDS011;10066;48.108;11.448;2022-11-15T09:08:05;4.40;;;3.37;;
19812;SDS011;10066;48.108;11.448;2022-11-15T09:10:32;5.07;;;3.33;;
19812;SDS011;10066;48.108;11.448;2022-11-15T09:13:02;4.07;;;3.50;;
19812;SDS011;10066;48.108;11.448;2022-11-15T09:15:29;4.20;;;3.40;;
19812;SDS011;10066;48.108;11.448;2022-11-15T09:17:57;8.17;;;4.27;;
19812;SDS011;10066;48.108;11.448;2022-11-15T09:20:24;3.13;;;2.60;;
19812;SDS011;10066;48.108;11.448;2022-11-15T09:22:54;6.03;;;2.90;;
19812;SDS011;10066;48.108;11.448;2022-11-15T09:25:26;3.87;;;2.20;;
19812;SDS011;10066;48.108;11.448;2022-11-15T09:27:54;8.07;;;2.43;;
19812;SDS011;10066;48.108;11.448;2022-11-15T09:30:22;3.83;;;2.40;;
19812;SDS011;10066;48.108;11.448;2022-11-15T09:32:49;4.40;;;1.90;;
19812;SDS011;10066;48.108;11.448;2022-11-15T09:35:16;5.80;;;2.10;;
19812;SDS011;10066;48.108;11.448;2022-11-15T09:37:45;3.30;;;2.00;;
19812;SDS011;10066;48.108;11.448;2022-11-15T09:40:15;4.33;;;2.30;;
19812;SDS011;10066;48.108;11.448;2022-11-15T09:43:00;2.00;;;1.80;;
19812;SDS011;10066;48.108;11.448;2022-11-15T09:45:57;2.73;;;2.00;;
19812;SDS011;10066;48.108;11.448;2022-11-15T09:48:39;4.53;;;1.80;;
19812;SDS011;10066;48.108;11.448;2022-11-15T09:51:24;6.67;;;2.00;;
19812;SDS011;10066;48.108;11.448;2022-11-15T09:54:03;2.80;;;1.70;;
19812;SDS011;10066;48.108;11.448;2022-11-15T09:56:37;2.17;;;1.80;;
19812;SDS011;10066;48.108;11.448;2022-11-15T09:59:13;2.93;;;2.30;;
19812;SDS011;10066;48.108;11.448;2022-11-15T10:02:01;3.50;;;2.23;;
19812;SDS011;10066;48.108;11.448;2022-11-15T10:04:40;3.27;;;2.00;;
19812;SDS011;10066;48.108;11.448;2022-11-15T10:07:12;2.60;;;1.77;;
19812;SDS011;10066;48.108;11.448;2022-11-15T10:09:47;2.23;;;1.50;;
19812;SDS011;10066;48.108;11.448;2022-11-15T10:12:23;2.63;;;1.63;;
19812;SDS011;10066;48.108;11.448;2022-11-15T10:14:55;2.50;;;1.57;;
19812;SDS011;10066;48.108;11.448;2022-11-15T10:17:34;3.13;;;1.40;;
19812;SDS011;10066;48.108;11.448;2022-11-15T10:20:23;2.53;;;1.53;;
19812;SDS011;10066;48.108;11.448;2022-11-15T10:22:54;2.60;;;1.30;;
19812;SDS011;10066;48.108;11.448;2022-11-15T10:25:28;1.30;;;1.10;;
19812;SDS011;10066;48.108;11.448;2022-11-15T10:28:04;1.23;;;1.10;;
19812;SDS011;10066;48.108;11.448;2022-11-15T10:30:42;1.67;;;1.10;;
19812;SDS011;10066;48.108;11.448;2022-11-15T10:36:14;2.97;;;1.37;;
19812;SDS011;10066;48.108;11.448;2022-11-15T10:38:51;4.17;;;1.30;;
19812;SDS011;10066;48.108;11.448;2022-11-15T10:41:21;2.23;;;1.30;;
19812;SDS011;10066;48.108;11.448;2022-11-15T10:44:07;3.70;;;1.50;;
19812;SDS011;10066;48.108;11.448;2022-11-15T10:47:20;2.63;;;1.40;;
19812;SDS011;10066;48.108;11.448;2022-11-15T10:49:53;1.50;;;1.37;;
19812;SDS011;10066;48.108;11.448;2022-11-15T10:52:26;3.83;;;1.30;;
19812;SDS011;10066;48.108;11.448;2022-11-15T10:54:56;2.10;;;1.37;;
19812;SDS011;10066;48.108;11.448;2022-11-15T10:57:28;1.87;;;1.30;;
19812;SDS011;10066;48.108;11.448;2022-11-15T10:59:59;3.53;;;1.23;;
19812;SDS011;10066;48.108;11.448;2022-11-15T11:02:36;3.87;;;1.93;;
19812;SDS011;10066;48.108;11.448;2022-11-15T11:05:28;2.03;;;1.20;;
19812;SDS011;10066;48.108;11.448;2022-11-15T11:08:02;3.33;;;1.30;;
19812;SDS011;10066;48.108;11.448;2022-11-15T11:10:31;1.87;;;1.30;;
19812;SDS011;10066;48.108;11.448;2022-11-15T11:13:12;2.23;;;1.40;;
19812;SDS011;10066;48.108;11.448;2022-11-15T11:15:41;1.67;;;1.40;;
19812;SDS011;10066;48.108;11.448;2022-11-15T11:18:14;2.20;;;1.40;;
19812;SDS011;10066;48.108;11.448;2022-11-15T11:20:50;1.20;;;1.10;;
19812;SDS011;10066;48.108;11.448;2022-11-15T11:23:31;1.77;;;1.30;;
19812;SDS011;10066;48.108;11.448;2022-11-15T11:26:24;1.73;;;1.30;;
19812;SDS011;10066;48.108;11.448;2022-11-15T11:29:03;1.80;;;1.40;;
19812;SDS011;10066;48.108;11.448;2022-11-15T11:31:40;1.63;;;1.20;;
19812;SDS011;10066;48.108;11.448;2022-11-15T11:34:15;2.00;;;1.30;;
19812;SDS011;10066;48.108;11.448;2022-11-15T11:36:53;1.63;;;1.33;;
19812;SDS011;10066;48.108;11.448;2022-11-15T11:39:31;2.03;;;1.20;;
19812;SDS011;10066;48.108;11.448;2022-11-15T11:42:14;1.70;;;1.17;;
19812;SDS011;10066;48.108;11.448;2022-11-15T11:44:48;1.13;;;1.03;;
19812;SDS011;10066;48.108;11.448;2022-11-15T11:47:23;1.50;;;1.30;;
19812;SDS011;10066;48.108;11.448;2022-11-15T11:50:01;1.20;;;1.10;;
19812;SDS011;10066;48.108;11.448;2022-11-15T11:52:41;1.70;;;1.23;;
19812;SDS011;10066;48.108;11.448;2022-11-15T11:55:17;2.00;;;1.30;;
19812;SDS011;10066;48.108;11.448;2022-11-15T11:57:50;1.33;;;1.10;;
19812;SDS011;10066;48.108;11.448;2022-11-15T12:00:24;3.07;;;1.17;;
19812;SDS011;10066;48.108;11.448;2022-11-15T12:02:59;1.40;;;1.00;;
19812;SDS011;10066;48.108;11.448;2022-11-15T12:05:34;1.10;;;1.00;;
19812;SDS011;10066;48.108;11.448;2022-11-15T12:08:10;1.53;;;1.10;;
19812;SDS011;10066;48.108;11.448;2022-11-15T12:10:52;1.13;;;1.00;;
19812;SDS011;10066;48.108;11.448;2022-11-15T12:13:26;1.07;;;0.97;;
19812;SDS011;10066;48.108;11.448;2022-11-15T12:15:59;1.53;;;1.10;;
19812;SDS011;10066;48.108;11.448;2022-11-15T12:18:32;1.13;;;1.00;;
19812;SDS011;10066;48.108;11.448;2022-11-15T12:21:06;1.70;;;1.27;;
19812;SDS011;10066;48.108;11.448;2022-11-15T12:23:41;1.67;;;1.30;;
19812;SDS011;10066;48.108;11.448;2022-11-15T12:26:15;6.43;;;1.47;;
19812;SDS011;10066;48.108;11.448;2022-11-15T12:28:53;2.07;;;1.30;;
19812;SDS011;10066;48.108;11.448;2022-11-15T12:31:24;2.87;;;1.23;;
19812;SDS011;10066;48.108;11.448;2022-11-15T12:33:58;2.17;;;1.50;;
19812;SDS011;10066;48.108;11.448;2022-11-15T12:36:37;2.37;;;1.40;;
19812;SDS011;10066;48.108;11.448;2022-11-15T12:39:06;3.37;;;1.57;;
19812;SDS011;10066;48.108;11.448;2022-11-15T12:41:35;4.30;;;1.40;;
19812;SDS011;10066;48.108;11.448;2022-11-15T12:44:10;4.40;;;1.83;;
19812;SDS011;10066;48.108;11.448;2022-11-15T12:47:01;3.23;;;1.57;;
19812;SDS011;10066;48.108;11.448;2022-11-15T12:49:47;1.57;;;1.30;;
19812;SDS011;10066;48.108;11.448;2022-11-15T12:52:17;3.10;;;1.50;;
19812;SDS011;10066;48.108;11.448;2022-11-15T12:54:50;2.00;;;1.50;;
19812;SDS011;10066;48.108;11.448;2022-11-15T12:57:31;2.40;;;1.67;;
19812;SDS011;10066;48.108;11.448;2022-11-15T13:03:17;1.73;;;1.10;;
19812;SDS011;10066;48.108;11.448;2022-11-15T13:06:02;1.70;;;1.40;;
19812;SDS011;10066;48.108;11.448;2022-11-15T13:08:36;1.30;;;1.20;;
19812;SDS011;10066;48.108;11.448;2022-11-15T13:20:19;2.20;;;1.33;;
19812;SDS011;10066;48.108;11.448;2022-11-15T13:22:52;2.67;;;1.57;;
19812;SDS011;10066;48.108;11.448;2022-11-15T13:28:33;2.13;;;1.40;;
19812;SDS011;10066;48.108;11.448;2022-11-15T13:31:13;2.50;;;1.33;;
19812;SDS011;10066;48.108;11.448;2022-11-15T13:33:56;1.87;;;1.57;;
19812;SDS011;10066;48.108;11.448;2022-11-15T13:36:27;1.70;;;1.40;;
19812;SDS011;10066;48.108;11.448;2022-11-15T13:38:59;2.37;;;1.40;;
19812;SDS011;10066;48.108;11.448;2022-11-15T13:41:30;2.07;;;1.67;;
19812;SDS011;10066;48.108;11.448;2022-11-15T13:43:59;1.50;;;1.40;;
19812;SDS011;10066;48.108;11.448;2022-11-15T13:46:27;1.30;;;1.20;;
19812;SDS011;10066;48.108;11.448;2022-11-15T13:48:56;3.67;;;1.50;;
19812;SDS011;10066;48.108;11.448;2022-11-15T13:51:35;1.47;;;1.30;;
19812;SDS011;10066;48.108;11.448;2022-11-15T13:54:08;1.50;;;1.20;;
19812;SDS011;10066;48.108;11.448;2022-11-15T13:56:47;2.07;;;1.40;;
19812;SDS011;10066;48.108;11.448;2022-11-15T13:59:22;1.93;;;1.50;;
19812;SDS011;10066;48.108;11.448;2022-11-15T14:01:55;2.70;;;1.40;;
19812;SDS011;10066;48.108;11.448;2022-11-15T14:04:26;2.73;;;1.63;;
19812;SDS011;10066;48.108;11.448;2022-11-15T14:06:57;2.63;;;1.50;;
19812;SDS011;10066;48.108;11.448;2022-11-15T14:09:30;1.83;;;1.60;;
19812;SDS011;10066;48.108;11.448;2022-11-15T14:14:50;3.93;;;1.43;;
19812;SDS011;10066;48.108;11.448;2022-11-15T14:17:20;4.63;;;1.43;;
19812;SDS011;10066;48.108;11.448;2022-11-15T14:20:00;2.50;;;1.60;;
19812;SDS011;10066;48.108;11.448;2022-11-15T14:22:27;2.07;;;1.60;;
19812;SDS011;10066;48.108;11.448;2022-11-15T14:25:15;1.77;;;1.60;;
19812;SDS011;10066;48.108;11.448;2022-11-15T14:28:07;2.40;;;1.50;;
19812;SDS011;10066;48.108;11.448;2022-11-15T14:30:38;2.20;;;2.00;;
19812;SDS011;10066;48.108;11.448;2022-11-15T14:33:16;5.00;;;1.90;;
19812;SDS011;10066;48.108;11.448;2022-11-15T14:35:48;2.20;;;1.93;;
19812;SDS011;10066;48.108;11.448;2022-11-15T14:38:15;2.87;;;1.90;;
19812;SDS011;10066;48.108;11.448;2022-11-15T14:40:42;2.90;;;1.97;;
19812;SDS011;10066;48.108;11.448;2022-11-15T14:43:14;2.03;;;1.80;;
19812;SDS011;10066;48.108;11.448;2022-11-15T14:45:42;2.10;;;1.80;;
19812;SDS011;10066;48.108;11.448;2022-11-15T14:48:10;2.87;;;1.80;;
19812;SDS011;10066;48.108;11.448;2022-11-15T14:50:38;2.33;;;1.80;;
19812;SDS011;10066;48.108;11.448;2022-11-15T14:53:05;2.60;;;2.03;;
19812;SDS011;10066;48.108;11.448;2022-11-15T14:55:36;2.50;;;1.70;;
19812;SDS011;10066;48.108;11.448;2022-11-15T14:58:04;2.23;;;1.87;;
19812;SDS011;10066;48.108;11.448;2022-11-15T15:00:35;5.37;;;2.77;;
19812;SDS011;10066;48.108;11.448;2022-11-15T15:03:04;2.63;;;2.27;;
19812;SDS011;10066;48.108;11.448;2022-11-15T15:05:33;3.27;;;2.43;;
19812;SDS011;10066;48.108;11.448;2022-11-15T15:08:02;3.73;;;2.87;;
19812;SDS011;10066;48.108;11.448;2022-11-15T15:10:31;3.67;;;2.93;;
19812;SDS011;10066;48.108;11.448;2022-11-15T15:13:00;5.57;;;3.10;;
19812;SDS011;10066;48.108;11.448;2022-11-15T15:15:29;8.73;;;3.10;;
19812;SDS011;10066;48.108;11.448;2022-11-15T15:18:00;6.83;;;3.77;;
19812;SDS011;10066;48.108;11.448;2022-11-15T15:20:27;5.93;;;4.03;;
19812;SDS011;10066;48.108;11.448;2022-11-15T15:22:55;5.47;;;3.67;;